Time;durP1;ratioP1;P1;durP2;ratioP2;P2;SDS_P1;SDS_P2;PMS_P1;PMS_P2;Temp;Humidity;BMP_temperature;BMP_pressure;BME280_temperature;BME280_humidity;BME280_pressure;Samples;Min_cycle;Max_cycle;Signal;HPM_P1;HPM_P2
2023/05/09 00:00:45;;;;;;;23.60;15.33;;;;;;;-141.97;100.00;47601.72;4992281;28;20537;-79
2023/05/09 00:03:11;;;;;;;23.87;16.20;;;;;;;-141.97;100.00;47615.19;4991913;28;20167;-78
2023/05/09 00:05:37;;;;;;;25.83;16.43;;;;;;;-141.97;100.00;47595.97;4992167;28;20163;-78
2023/05/09 00:08:03;;;;;;;23.43;15.80;;;;;;;-141.97;100.00;47630.56;4991722;28;20260;-79
2023/05/09 00:10:28;;;;;;;25.13;16.53;;;;;;;-141.97;100.00;47726.66;4991812;28;20191;-79
2023/05/09 00:12:54;;;;;;;27.27;16.87;;;;;;;-141.97;100.00;47576.75;4991888;28;20246;-79
2023/05/09 00:15:20;;;;;;;26.63;17.47;;;;;;;-141.97;100.00;47636.31;4991983;28;20151;-79
2023/05/09 00:17:45;;;;;;;25.97;16.77;;;;;;;-141.97;100.00;47622.88;4991991;28;20206;-79
2023/05/09 00:20:11;;;;;;;28.37;17.20;;;;;;;-141.97;100.00;47667.06;4992144;28;20587;-79
2023/05/09 00:22:39;;;;;;;27.53;17.23;;;;;;;-141.97;100.00;47663.22;4992382;28;20164;-79
2023/05/09 00:25:06;;;;;;;28.17;17.90;;;;;;;-141.97;100.00;47632.47;4992039;28;20184;-79
2023/05/09 00:27:32;;;;;;;29.30;18.63;;;;;;;-141.97;100.00;47634.41;4992076;28;20174;-78
2023/05/09 00:29:57;;;;;;;30.87;17.57;;;;;;;-141.97;100.00;47626.72;4991557;28;20522;-78
2023/05/09 00:32:24;;;;;;;30.63;17.60;;;;;;;-141.97;100.00;47611.34;4992369;28;20167;-79
2023/05/09 00:34:49;;;;;;;29.10;18.50;;;;;;;-141.97;100.00;47667.06;4991583;28;20156;-79
2023/05/09 00:37:17;;;;;;;30.77;18.23;;;;;;;-141.97;100.00;47626.72;4991602;28;20517;-79
2023/05/09 00:39:43;;;;;;;34.60;19.77;;;;;;;-141.97;100.00;47634.41;4994879;28;20631;-79
2023/05/09 00:42:08;;;;;;;31.03;18.07;;;;;;;-141.97;100.00;47642.09;4995219;28;20167;-79
2023/05/09 00:44:33;;;;;;;31.47;19.10;;;;;;;-141.97;100.00;47642.09;4995560;28;20175;-80
2023/05/09 00:46:59;;;;;;;29.17;17.83;;;;;;;-141.97;100.00;47626.72;4995525;28;20163;-79
2023/05/09 00:49:25;;;;;;;30.87;17.90;;;;;;;-141.97;100.00;47622.88;4995287;28;20270;-79
2023/05/09 00:51:50;;;;;;;32.13;18.20;;;;;;;-141.97;100.00;47613.25;4995850;28;20517;-79
2023/05/09 00:54:16;;;;;;;30.70;17.73;;;;;;;-141.97;100.00;47680.53;4995324;28;20222;-79
2023/05/09 00:56:41;;;;;;;27.87;18.10;;;;;;;-141.97;100.00;47613.25;4995029;28;20167;-78
2023/05/09 00:59:06;;;;;;;31.43;18.40;;;;;;;-141.97;100.00;47657.47;4994018;28;20171;-79
2023/05/09 01:01:32;;;;;;;30.57;18.50;;;;;;;-141.97;100.00;47607.50;5000276;28;20239;-79
2023/05/09 01:03:58;;;;;;;31.47;18.00;;;;;;;-141.97;100.00;47619.03;5018815;28;20219;-79
2023/05/09 01:06:42;;;;;;;32.97;18.77;;;;;;;-141.97;100.00;47617.09;4996169;28;20172;-76
2023/05/09 01:09:45;;;;;;;32.43;18.57;;;;;;;-141.97;100.00;47636.31;4995088;28;20171;-79
2023/05/09 01:12:51;;;;;;;33.47;18.90;;;;;;;-141.97;100.00;47665.16;4994752;28;20171;-79
2023/05/09 01:15:35;;;;;;;34.67;19.70;;;;;;;-141.97;100.00;47655.53;4994738;28;20159;-78
2023/05/09 01:18:08;;;;;;;32.93;20.30;;;;;;;-141.97;100.00;47620.94;4994885;28;20254;-79
2023/05/09 01:21:19;;;;;;;35.60;20.27;;;;;;;-141.97;100.00;47607.50;4994932;28;20172;-78
2023/05/09 01:24:03;;;;;;;33.17;19.87;;;;;;;-141.97;100.00;47669.00;5012495;28;20221;-79
2023/05/09 01:26:40;;;;;;;34.70;20.73;;;;;;;-141.97;100.00;47657.47;5012071;28;20167;-80
2023/05/09 01:29:14;;;;;;;32.70;18.87;;;;;;;-141.97;100.00;47613.25;5011995;28;20194;-79
2023/05/09 01:31:42;;;;;;;35.40;19.83;;;;;;;-141.97;100.00;47647.84;5011754;28;20182;-79
2023/05/09 01:34:10;;;;;;;30.57;18.90;;;;;;;-141.97;100.00;47751.66;5012032;28;20181;-80
2023/05/09 01:36:38;;;;;;;30.00;18.80;;;;;;;-141.97;100.00;47630.56;5011795;28;20689;-79
2023/05/09 01:39:05;;;;;;;35.73;18.90;;;;;;;-141.97;100.00;47651.69;5011540;28;20226;-79
2023/05/09 01:41:33;;;;;;;28.07;17.53;;;;;;;-141.97;100.00;47653.63;5011373;28;20191;-78
2023/05/09 01:44:02;;;;;;;29.37;17.87;;;;;;;-141.97;100.00;47617.09;4995602;28;20174;-79
2023/05/09 01:46:28;;;;;;;30.10;17.40;;;;;;;-141.97;100.00;47644.00;5011822;28;20262;-79
2023/05/09 01:48:56;;;;;;;27.90;17.33;;;;;;;-141.97;100.00;47634.41;5011291;28;20686;-79
2023/05/09 01:51:23;;;;;;;28.77;17.47;;;;;;;-141.97;100.00;47620.94;5011750;28;20202;-79
2023/05/09 01:53:51;;;;;;;27.97;17.67;;;;;;;-141.97;100.00;47594.03;5012137;28;20195;-80
2023/05/09 01:56:18;;;;;;;27.93;17.07;;;;;;;-141.97;100.00;47634.41;5000171;28;20226;-79
2023/05/09 01:58:47;;;;;;;28.03;17.13;;;;;;;-141.97;100.00;47632.47;5001367;28;20171;-79
2023/05/09 02:01:13;;;;;;;26.30;17.07;;;;;;;-141.97;100.00;47640.16;4984316;28;20234;-79
2023/05/09 02:03:39;;;;;;;31.80;17.97;;;;;;;-141.97;100.00;47649.78;4974635;28;20167;-77
2023/05/09 02:06:06;;;;;;;31.23;17.37;;;;;;;-141.97;100.00;47615.19;4974725;28;20175;-79
2023/05/09 02:08:32;;;;;;;29.77;17.40;;;;;;;-141.97;100.00;47597.88;4974921;28;20164;-78
2023/05/09 02:10:57;;;;;;;28.50;17.83;;;;;;;-141.97;100.00;47630.56;4974306;28;20254;-79
2023/05/09 02:13:23;;;;;;;29.60;18.33;;;;;;;-141.97;100.00;47634.41;4974350;28;20195;-79
2023/05/09 02:15:49;;;;;;;30.10;17.73;;;;;;;-141.97;100.00;47626.72;4974699;28;20598;-79
2023/05/09 02:18:15;;;;;;;30.43;18.40;;;;;;;-141.97;100.00;47661.31;4974223;28;20243;-78
2023/05/09 02:20:41;;;;;;;30.17;18.07;;;;;;;-141.97;100.00;47638.25;4974383;28;20212;-79
2023/05/09 02:23:06;;;;;;;28.07;17.83;;;;;;;-141.97;100.00;47595.97;4974842;28;20247;-79
2023/05/09 02:25:33;;;;;;;30.23;18.10;;;;;;;-141.97;100.00;47647.84;4973800;28;20179;-78
2023/05/09 02:28:00;;;;;;;32.43;18.17;;;;;;;-141.97;100.00;47669.00;4974852;28;20559;-81
2023/05/09 02:30:29;;;;;;;29.50;18.50;;;;;;;-141.97;100.00;47665.16;4974306;28;20188;-79
2023/05/09 02:33:05;;;;;;;28.73;17.80;;;;;;;-141.97;100.00;47630.56;4974402;28;20318;-78
2023/05/09 02:35:31;;;;;;;28.33;17.40;;;;;;;-141.97;100.00;47624.78;4973818;28;20254;-79
2023/05/09 02:37:58;;;;;;;31.07;17.87;;;;;;;-141.97;100.00;47649.78;4973226;28;20618;-76
2023/05/09 02:40:26;;;;;;;29.07;17.70;;;;;;;-141.97;100.00;47634.41;4973609;28;20180;-78
2023/05/09 02:42:51;;;;;;;32.40;18.07;;;;;;;-141.97;100.00;47651.69;4974342;28;20195;-79
2023/05/09 02:45:16;;;;;;;27.50;17.40;;;;;;;-141.97;100.00;47603.66;4973495;28;20563;-79
2023/05/09 02:47:42;;;;;;;30.17;18.33;;;;;;;-141.97;100.00;47634.41;4987564;28;20261;-79
2023/05/09 02:50:07;;;;;;;30.40;17.90;;;;;;;-141.97;100.00;47661.31;4992800;28;20511;-79
2023/05/09 02:52:33;;;;;;;30.10;17.60;;;;;;;-141.97;100.00;47697.84;4993198;28;20214;-79
2023/05/09 02:54:58;;;;;;;28.33;17.83;;;;;;;-141.97;100.00;47611.34;4993750;28;20551;-78
2023/05/09 02:57:23;;;;;;;28.20;17.47;;;;;;;-141.97;100.00;47622.88;4993885;28;20163;-79
2023/05/09 02:59:49;;;;;;;29.37;17.80;;;;;;;-141.97;100.00;47622.88;4993449;28;20214;-78
2023/05/09 03:02:14;;;;;;;26.27;17.40;;;;;;;-141.97;100.00;47649.78;4993119;28;20262;-79
2023/05/09 03:04:40;;;;;;;30.10;18.00;;;;;;;-141.97;100.00;47622.88;4993993;28;20152;-76
2023/05/09 03:07:06;;;;;;;32.60;18.30;;;;;;;-141.97;100.00;47657.47;4991848;28;20175;-79
2023/05/09 03:09:31;;;;;;;29.10;17.13;;;;;;;-141.97;100.00;47630.56;4993507;28;20191;-79
2023/05/09 03:11:57;;;;;;;30.47;17.87;;;;;;;-141.97;100.00;47622.88;4993549;28;20623;-79
2023/05/09 03:14:22;;;;;;;29.60;18.20;;;;;;;-141.97;100.00;47619.03;4993497;28;20241;-79
2023/05/09 03:16:48;;;;;;;30.03;17.43;;;;;;;-141.97;100.00;47615.19;4993864;28;20528;-78
2023/05/09 03:19:13;;;;;;;30.70;18.23;;;;;;;-141.97;100.00;47651.69;4993555;28;20863;-79
2023/05/09 03:21:38;;;;;;;26.70;17.30;;;;;;;-141.97;100.00;47661.31;4993586;28;20171;-79
2023/05/09 03:24:05;;;;;;;30.23;18.03;;;;;;;-141.97;100.00;47626.72;4993917;28;20239;-79
2023/05/09 03:26:31;;;;;;;30.67;17.13;;;;;;;-141.97;100.00;47665.16;4992013;28;20178;-80
2023/05/09 03:28:57;;;;;;;30.40;17.83;;;;;;;-141.97;100.00;47680.53;4993755;28;20163;-78
2023/05/09 03:31:23;;;;;;;32.13;18.07;;;;;;;-141.97;100.00;47655.53;4992859;28;20191;-76
2023/05/09 03:33:48;;;;;;;30.23;17.70;;;;;;;-141.97;100.00;47669.00;4993236;28;20540;-78
2023/05/09 03:36:13;;;;;;;29.17;17.47;;;;;;;-141.97;100.00;47630.56;4993657;28;20164;-79
2023/05/09 03:38:39;;;;;;;34.27;18.40;;;;;;;-141.97;100.00;47703.59;4993366;28;20302;-79
2023/05/09 03:41:04;;;;;;;27.57;16.90;;;;;;;-141.97;100.00;47634.41;4993244;28;20214;-79
2023/05/09 03:43:30;;;;;;;29.57;17.90;;;;;;;-141.97;100.00;47620.94;4993310;28;20191;-80
2023/05/09 03:45:55;;;;;;;29.07;17.73;;;;;;;-141.97;100.00;47653.63;4993424;28;20167;-79
2023/05/09 03:48:20;;;;;;;34.53;19.50;;;;;;;-141.97;100.00;47688.22;4992879;28;20243;-79
2023/05/09 03:50:46;;;;;;;38.07;22.73;;;;;;;-141.97;100.00;47609.41;4992671;28;20598;-78
2023/05/09 03:53:11;;;;;;;35.10;22.17;;;;;;;-141.97;100.00;47749.72;4992006;28;20174;-78
2023/05/09 03:55:36;;;;;;;36.40;21.77;;;;;;;-141.97;100.00;47670.91;4992235;28;20235;-78
2023/05/09 03:58:03;;;;;;;30.90;19.80;;;;;;;-141.97;100.00;47647.84;4992117;28;20163;-80
2023/05/09 04:00:28;;;;;;;34.23;20.40;;;;;;;-141.97;100.00;47672.84;4992492;28;20160;-79
2023/05/09 04:02:53;;;;;;;29.33;18.47;;;;;;;-141.97;100.00;47661.31;4992649;28;20647;-79
2023/05/09 04:05:19;;;;;;;32.67;18.77;;;;;;;-141.97;100.00;47653.63;4992672;28;20164;-79
2023/05/09 04:07:45;;;;;;;31.27;18.60;;;;;;;-141.97;100.00;47655.53;4985418;28;20226;-79
2023/05/09 04:10:10;;;;;;;35.20;18.90;;;;;;;-141.97;100.00;47651.69;5001582;28;20587;-79
2023/05/09 04:12:36;;;;;;;31.87;18.73;;;;;;;-141.97;100.00;47669.00;4993384;28;20167;-80
2023/05/09 04:15:01;;;;;;;31.37;19.20;;;;;;;-141.97;100.00;47651.69;4995362;28;20198;-78
2023/05/09 04:17:26;;;;;;;33.43;19.97;;;;;;;-141.97;100.00;47649.78;4995880;28;20616;-79
2023/05/09 04:19:52;;;;;;;30.80;18.50;;;;;;;-141.97;100.00;47636.31;4995322;28;20229;-79
2023/05/09 04:22:17;;;;;;;31.37;18.63;;;;;;;-141.97;100.00;47651.69;4995386;28;20183;-77
2023/05/09 04:24:42;;;;;;;32.17;19.23;;;;;;;-141.97;100.00;47651.69;4994807;28;20253;-78
2023/05/09 04:27:08;;;;;;;33.20;20.57;;;;;;;-141.97;100.00;47661.31;4995238;28;20655;-78
2023/05/09 04:29:34;;;;;;;37.90;22.63;;;;;;;-141.97;100.00;47619.03;4994955;28;20199;-79
2023/05/09 04:32:00;;;;;;;36.40;22.97;;;;;;;-141.97;100.00;47651.69;4995202;28;20517;-78
2023/05/09 04:34:26;;;;;;;40.23;23.37;;;;;;;-141.97;100.00;47640.16;4995191;28;20632;-79
2023/05/09 04:36:52;;;;;;;43.57;24.23;;;;;;;-141.97;100.00;47615.19;4995510;28;20178;-81
2023/05/09 04:39:18;;;;;;;38.27;23.53;;;;;;;-141.97;100.00;47636.31;4993373;28;20219;-80
2023/05/09 04:41:45;;;;;;;40.33;23.00;;;;;;;-141.97;100.00;47674.78;4995226;28;20253;-80
2023/05/09 04:44:10;;;;;;;36.57;22.07;;;;;;;-141.97;100.00;47655.53;4994861;28;20190;-81
2023/05/09 04:46:36;;;;;;;40.30;22.33;;;;;;;-141.97;100.00;47667.06;4995479;28;20160;-80
2023/05/09 04:49:01;;;;;;;49.60;28.03;;;;;;;-141.97;100.00;47651.69;4994723;28;20659;-78
2023/05/09 04:51:27;;;;;;;35.07;21.07;;;;;;;-141.97;100.00;47655.53;4994476;28;20195;-80
2023/05/09 04:53:52;;;;;;;34.30;20.43;;;;;;;-141.97;100.00;47619.03;4993430;28;20175;-81
2023/05/09 04:56:17;;;;;;;33.80;20.87;;;;;;;-141.97;100.00;47584.44;4995396;28;20163;-81
2023/05/09 04:58:43;;;;;;;34.13;20.97;;;;;;;-141.97;100.00;47576.75;4993442;28;20201;-81
2023/05/09 05:01:08;;;;;;;35.73;20.70;;;;;;;-141.97;100.00;47665.16;4994750;28;20198;-82
2023/05/09 05:03:33;;;;;;;32.80;20.07;;;;;;;-141.97;100.00;47676.69;4994741;28;20245;-81
2023/05/09 05:05:59;;;;;;;33.67;19.50;;;;;;;-141.97;100.00;47653.63;4994866;28;20187;-81
2023/05/09 05:08:24;;;;;;;35.50;20.60;;;;;;;-141.97;100.00;47649.78;5001418;28;20683;-80
2023/05/09 05:10:50;;;;;;;32.43;19.13;;;;;;;-141.97;100.00;47657.47;5014123;28;20198;-80
2023/05/09 05:13:16;;;;;;;34.27;19.30;;;;;;;-141.97;100.00;47669.00;5014327;28;20225;-79
2023/05/09 05:15:41;;;;;;;33.07;19.83;;;;;;;-141.97;100.00;47751.66;5013094;28;20181;-78
2023/05/09 05:18:06;;;;;;;30.43;18.90;;;;;;;-141.97;100.00;47653.63;5014089;28;20246;-81
2023/05/09 05:20:32;;;;;;;29.37;18.67;;;;;;;-141.97;100.00;47665.16;5014208;28;20177;-80
2023/05/09 05:22:58;;;;;;;29.53;18.63;;;;;;;-141.97;100.00;47653.63;5014423;28;20177;-80
2023/05/09 05:25:24;;;;;;;29.70;18.70;;;;;;;-141.97;100.00;47665.16;5013383;28;20167;-81
2023/05/09 05:27:50;;;;;;;27.90;15.93;;;;;;;-141.97;100.00;47726.66;5014390;28;20703;-80
2023/05/09 05:30:15;;;;;;;27.93;16.20;;;;;;;-141.97;100.00;47649.78;5014110;28;20190;-79
2023/05/09 05:32:41;;;;;;;27.70;15.77;;;;;;;-141.97;100.00;47669.00;5014511;28;20177;-80
2023/05/09 05:35:06;;;;;;;28.87;16.80;;;;;;;-141.97;100.00;47684.38;5023564;28;20211;-80
2023/05/09 05:37:32;;;;;;;28.73;16.77;;;;;;;-141.97;100.00;47665.16;5014233;28;20159;-81
2023/05/09 05:39:57;;;;;;;29.17;17.30;;;;;;;-141.97;100.00;47615.19;5013381;28;20230;-82
2023/05/09 05:42:23;;;;;;;32.30;17.57;;;;;;;-141.97;100.00;47626.72;5013862;28;20604;-76
2023/05/09 05:44:48;;;;;;;29.53;18.00;;;;;;;-141.97;100.00;47644.00;5013811;28;20205;-80
2023/05/09 05:47:14;;;;;;;31.47;17.67;;;;;;;-141.97;100.00;47634.41;5014159;28;20250;-80
2023/05/09 05:49:39;;;;;;;33.77;18.20;;;;;;;-141.97;100.00;47695.91;5012680;28;20623;-81
2023/05/09 05:52:04;;;;;;;30.97;17.80;;;;;;;-141.97;100.00;47659.38;5014012;28;20197;-80
2023/05/09 05:54:30;;;;;;;30.87;19.20;;;;;;;-141.97;100.00;47642.09;5013862;28;20205;-80
2023/05/09 05:56:55;;;;;;;31.40;18.33;;;;;;;-141.97;100.00;47680.53;5013608;28;20523;-81
2023/05/09 05:59:21;;;;;;;31.33;17.90;;;;;;;-141.97;100.00;47661.31;5014141;28;20550;-81
2023/05/09 06:01:46;;;;;;;31.40;18.37;;;;;;;-141.97;100.00;47669.00;5013807;28;20222;-80
2023/05/09 06:04:11;;;;;;;33.37;19.23;;;;;;;-141.97;100.00;47717.06;5013995;28;20174;-80
2023/05/09 06:06:37;;;;;;;33.50;20.33;;;;;;;-141.97;100.00;47657.47;5004389;28;20654;-78
2023/05/09 06:09:02;;;;;;;32.13;20.13;;;;;;;-141.97;100.00;47649.78;5013310;28;20179;-80
2023/05/09 06:11:28;;;;;;;39.60;23.80;;;;;;;-141.97;100.00;47638.25;5012988;28;20218;-81
2023/05/09 06:13:53;;;;;;;31.57;19.17;;;;;;;-141.97;100.00;47688.22;5010139;28;20666;-81
2023/05/09 06:16:20;;;;;;;32.03;17.33;;;;;;;-141.97;100.00;47670.91;5006332;28;20179;-81
2023/05/09 06:18:45;;;;;;;27.20;16.93;;;;;;;-141.97;100.00;47599.81;4994927;28;20194;-83
2023/05/09 06:21:11;;;;;;;29.10;17.63;;;;;;;-141.97;100.00;47651.69;4993434;28;20175;-80
2023/05/09 06:23:36;;;;;;;32.37;18.80;;;;;;;-141.97;100.00;47609.41;4994090;28;20244;-82
2023/05/09 06:26:02;;;;;;;34.57;19.67;;;;;;;-141.97;100.00;47676.69;5004423;28;20262;-80
2023/05/09 06:28:28;;;;;;;30.80;19.13;;;;;;;-141.97;100.00;47684.38;5013569;28;20249;-80
2023/05/09 06:30:53;;;;;;;33.93;20.53;;;;;;;-141.97;100.00;47676.69;5012865;28;20729;-80
2023/05/09 06:33:19;;;;;;;32.53;19.43;;;;;;;-141.97;100.00;47686.31;5008701;28;20187;-81
2023/05/09 06:35:44;;;;;;;33.80;19.97;;;;;;;-141.97;100.00;47657.47;5002019;28;20171;-80
2023/05/09 06:38:10;;;;;;;33.07;20.27;;;;;;;-141.97;100.00;47663.22;5012853;28;20244;-81
2023/05/09 06:40:35;;;;;;;33.07;19.63;;;;;;;-141.97;100.00;47780.47;5013208;28;20163;-82
2023/05/09 06:43:01;;;;;;;38.13;19.70;;;;;;;-141.97;100.00;47642.09;5012524;28;20170;-80
2023/05/09 06:45:26;;;;;;;37.80;20.30;;;;;;;-141.97;100.00;47655.53;5012542;28;20181;-80
2023/05/09 06:47:51;;;;;;;34.27;19.47;;;;;;;-141.97;100.00;47682.47;5012646;28;20220;-80
2023/05/09 06:50:17;;;;;;;34.30;19.60;;;;;;;-141.97;100.00;47649.78;5012565;28;20608;-80
2023/05/09 06:52:42;;;;;;;34.57;19.67;;;;;;;-141.97;100.00;47603.66;5012969;28;20623;-80
2023/05/09 06:55:08;;;;;;;33.53;19.57;;;;;;;-141.97;100.00;47684.38;5012499;28;20254;-79
2023/05/09 06:57:34;;;;;;;35.40;19.40;;;;;;;-141.97;100.00;47676.69;5012718;28;20201;-79
2023/05/09 06:59:59;;;;;;;33.07;19.77;;;;;;;-141.97;100.00;47688.22;5012888;28;20194;-80
2023/05/09 07:02:25;;;;;;;33.67;19.70;;;;;;;-141.97;100.00;47651.69;5013972;28;20197;-79
2023/05/09 07:04:50;;;;;;;33.07;20.40;;;;;;;-141.97;100.00;47649.78;5026207;28;20175;-80
2023/05/09 07:07:16;;;;;;;34.43;19.67;;;;;;;-141.97;100.00;47595.97;5025792;28;20285;-81
2023/05/09 07:09:41;;;;;;;38.60;21.23;;;;;;;-141.97;100.00;47632.47;5032083;28;20221;-78
2023/05/09 07:12:07;;;;;;;35.67;21.17;;;;;;;-141.97;100.00;47657.47;5017925;28;20174;-80
2023/05/09 07:14:33;;;;;;;38.53;21.33;;;;;;;-141.97;100.00;47684.38;5015952;28;20229;-78
2023/05/09 07:16:58;;;;;;;33.93;20.60;;;;;;;-141.97;100.00;47672.84;5012915;28;20178;-79
2023/05/09 07:19:24;;;;;;;37.37;22.10;;;;;;;-141.97;100.00;47642.09;5012974;28;20647;-79
2023/05/09 07:21:49;;;;;;;42.93;22.47;;;;;;;-141.97;100.00;47663.22;5012386;28;20182;-79
2023/05/09 07:24:15;;;;;;;38.10;22.50;;;;;;;-141.97;100.00;47647.84;5013065;28;20647;-78
2023/05/09 07:26:40;;;;;;;41.60;22.97;;;;;;;-141.97;100.00;47655.53;5011922;28;20170;-81
2023/05/09 07:29:06;;;;;;;41.13;23.07;;;;;;;-141.97;100.00;47736.28;5013110;28;20182;-82
2023/05/09 07:31:31;;;;;;;41.50;21.33;;;;;;;-141.97;100.00;47611.34;5013867;28;20187;-80
2023/05/09 07:33:57;;;;;;;38.90;21.70;;;;;;;-141.97;100.00;47607.50;5012513;28;20182;-81
2023/05/09 07:36:22;;;;;;;35.60;20.80;;;;;;;-141.97;100.00;47592.13;5012509;28;20481;-80
2023/05/09 07:38:49;;;;;;;36.93;20.93;;;;;;;-141.97;100.00;47603.66;5010137;28;20241;-79
2023/05/09 07:41:15;;;;;;;39.53;20.80;;;;;;;-141.97;100.00;47670.91;5011594;28;20169;-80
2023/05/09 07:43:40;;;;;;;38.67;21.63;;;;;;;-141.97;100.00;47657.47;5011803;28;20165;-79
2023/05/09 07:46:06;;;;;;;40.87;21.37;;;;;;;-141.97;100.00;47670.91;5012122;28;20175;-80
2023/05/09 07:48:31;;;;;;;39.30;22.07;;;;;;;-141.97;100.00;47659.38;5012123;28;20534;-80
2023/05/09 07:50:57;;;;;;;39.80;22.40;;;;;;;-141.97;100.00;47644.00;5011032;28;20267;-79
2023/05/09 07:53:23;;;;;;;37.83;20.93;;;;;;;-141.97;100.00;47684.38;5011557;28;20689;-79
2023/05/09 07:55:49;;;;;;;38.53;21.30;;;;;;;-141.97;100.00;47661.31;5011505;28;20175;-80
2023/05/09 07:58:15;;;;;;;39.87;22.33;;;;;;;-141.97;100.00;47680.53;5011954;28;20998;-79
2023/05/09 08:00:41;;;;;;;38.07;21.80;;;;;;;-141.97;100.00;47667.06;5011599;28;20558;-80
2023/05/09 08:03:06;;;;;;;40.57;21.00;;;;;;;-141.97;100.00;47655.53;5011798;28;20174;-78
2023/05/09 08:05:31;;;;;;;37.47;20.90;;;;;;;-141.97;100.00;47669.00;5012534;28;20213;-80
2023/05/09 08:07:57;;;;;;;37.97;21.10;;;;;;;-141.97;100.00;47620.94;5013326;28;20185;-77
2023/05/09 08:10:23;;;;;;;40.67;21.47;;;;;;;-141.97;100.00;47636.31;5013904;28;20218;-79
2023/05/09 08:12:50;;;;;;;42.60;23.87;;;;;;;-141.97;100.00;47665.16;5012802;28;20186;-80
2023/05/09 08:15:15;;;;;;;45.87;23.13;;;;;;;-141.97;100.00;47684.38;5012078;28;20510;-79
2023/05/09 08:17:41;;;;;;;45.87;25.00;;;;;;;-141.97;100.00;47661.31;5012489;28;20167;-79
2023/05/09 08:20:07;;;;;;;46.63;25.97;;;;;;;-141.97;100.00;47672.84;5019876;28;20245;-78
2023/05/09 08:23:01;;;;;;;46.30;25.30;;;;;;;-141.97;100.00;47674.78;5020150;28;20162;-78
2023/05/09 08:25:26;;;;;;;45.07;25.07;;;;;;;-141.97;100.00;47667.06;5020121;28;20166;-81
2023/05/09 08:27:52;;;;;;;48.43;25.70;;;;;;;-141.97;100.00;47768.94;5013826;28;20233;-78
2023/05/09 08:30:17;;;;;;;50.17;25.33;;;;;;;-141.97;100.00;47661.31;5011727;28;20619;-78
2023/05/09 08:32:43;;;;;;;44.47;25.23;;;;;;;-141.97;100.00;47649.78;5014585;28;20178;-78
2023/05/09 08:35:08;;;;;;;44.60;24.90;;;;;;;-141.97;100.00;47672.84;5016117;28;20162;-81
2023/05/09 08:37:35;;;;;;;43.80;24.83;;;;;;;-141.97;100.00;47651.69;5016603;28;20179;-78
2023/05/09 08:40:08;;;;;;;46.53;23.83;;;;;;;-141.97;100.00;47678.63;5016183;28;20186;-78
2023/05/09 08:42:37;;;;;;;44.83;24.50;;;;;;;-141.97;100.00;47686.31;5015403;28;20202;-79
2023/05/09 08:45:09;;;;;;;38.77;21.73;;;;;;;-141.97;100.00;47772.78;5015410;28;20188;-80
2023/05/09 08:47:36;;;;;;;40.73;21.87;;;;;;;-141.97;100.00;47682.47;4999593;28;20186;-80
2023/05/09 08:50:03;;;;;;;39.97;22.13;;;;;;;-141.97;100.00;47680.53;5015157;28;20198;-79
2023/05/09 08:52:35;;;;;;;36.33;21.33;;;;;;;-141.97;100.00;47676.69;5020920;28;20254;-78
2023/05/09 08:55:05;;;;;;;36.40;20.53;;;;;;;-141.97;100.00;47642.09;5012054;28;20171;-80
2023/05/09 08:57:34;;;;;;;39.03;21.17;;;;;;;-141.97;100.00;47663.22;5007219;28;20179;-80
2023/05/09 09:00:00;;;;;;;38.23;20.80;;;;;;;-141.97;100.00;47653.63;5001222;28;20195;-79
2023/05/09 09:02:25;;;;;;;40.87;22.23;;;;;;;-141.97;100.00;47686.31;5012695;28;20193;-80
2023/05/09 09:04:50;;;;;;;40.03;21.83;;;;;;;-141.97;100.00;47680.53;5012077;28;20278;-79
2023/05/09 09:07:17;;;;;;;40.93;21.97;;;;;;;-141.97;100.00;47674.78;4995867;28;20269;-79
2023/05/09 09:09:47;;;;;;;38.43;20.77;;;;;;;-141.97;100.00;47688.22;5011757;28;20281;-79
2023/05/09 09:12:15;;;;;;;37.97;21.30;;;;;;;-141.97;100.00;47674.78;5011554;28;20184;-78
2023/05/09 09:14:46;;;;;;;42.17;21.40;;;;;;;-141.97;100.00;47665.16;5013849;28;20696;-80
2023/05/09 09:17:17;;;;;;;37.27;21.23;;;;;;;-141.97;100.00;47680.53;5013745;28;20262;-79
2023/05/09 09:19:44;;;;;;;39.47;21.67;;;;;;;-141.97;100.00;47653.63;5013478;28;20167;-81
2023/05/09 09:22:14;;;;;;;37.97;21.87;;;;;;;-141.97;100.00;47684.38;5013679;28;20202;-82
2023/05/09 09:24:40;;;;;;;40.27;21.53;;;;;;;-141.97;100.00;47647.84;5014900;28;20158;-81
2023/05/09 09:27:06;;;;;;;35.53;20.67;;;;;;;-141.97;100.00;47603.66;5014097;28;20523;-80
2023/05/09 09:29:32;;;;;;;37.00;20.47;;;;;;;-141.97;100.00;47669.00;5013335;28;20253;-80
2023/05/09 09:32:01;;;;;;;33.27;20.70;;;;;;;-141.97;100.00;47682.47;5014081;28;20620;-79
2023/05/09 09:34:26;;;;;;;31.63;19.00;;;;;;;-141.97;100.00;47670.91;5013702;28;20619;-80
2023/05/09 09:36:52;;;;;;;29.30;18.17;;;;;;;-141.97;100.00;47672.84;5013964;28;20190;-79
2023/05/09 09:39:18;;;;;;;28.50;18.17;;;;;;;-141.97;100.00;47768.94;5012654;28;20296;-80
2023/05/09 09:41:43;;;;;;;27.80;17.40;;;;;;;-141.97;100.00;47624.78;5013222;28;20182;-79
2023/05/09 09:44:17;;;;;;;28.10;18.07;;;;;;;-141.97;100.00;47655.53;5013510;28;20167;-80
2023/05/09 09:46:53;;;;;;;28.37;17.33;;;;;;;-141.97;100.00;47670.91;5013684;28;20159;-80
2023/05/09 09:49:21;;;;;;;29.77;18.10;;;;;;;-141.97;100.00;47669.00;5013251;28;20241;-79
2023/05/09 09:51:54;;;;;;;29.00;18.60;;;;;;;-141.97;100.00;47653.63;5013913;28;20163;-79
2023/05/09 09:54:20;;;;;;;29.73;18.27;;;;;;;-141.97;100.00;47667.06;5013010;28;20301;-80
2023/05/09 09:56:47;;;;;;;32.50;19.23;;;;;;;-141.97;100.00;47688.22;5013330;28;20246;-80
2023/05/09 09:59:18;;;;;;;36.00;19.77;;;;;;;-141.97;100.00;47682.47;5004208;28;20703;-79
2023/05/09 10:02:00;;;;;;;35.20;19.70;;;;;;;-141.97;100.00;47667.06;5013743;28;20163;-80
2023/05/09 10:04:35;;;;;;;34.20;19.03;;;;;;;-141.97;100.00;47649.78;5012570;28;20643;-80
2023/05/09 10:07:05;;;;;;;33.40;19.57;;;;;;;-141.97;100.00;47822.78;5015690;28;20162;-79
2023/05/09 10:09:32;;;;;;;32.13;19.33;;;;;;;-141.97;100.00;47665.16;5015056;28;20191;-80
2023/05/09 10:12:03;;;;;;;35.00;20.53;;;;;;;-141.97;100.00;47665.16;5017369;28;20205;-79
2023/05/09 10:14:35;;;;;;;33.60;20.00;;;;;;;-141.97;100.00;47661.31;5015539;28;20158;-77
2023/05/09 10:17:03;;;;;;;36.73;21.07;;;;;;;-141.97;100.00;47657.47;5022379;28;20159;-78
2023/05/09 10:19:29;;;;;;;42.63;21.40;;;;;;;-141.97;100.00;47695.91;5023124;28;20167;-78
2023/05/09 10:22:03;;;;;;;35.17;19.63;;;;;;;-141.97;100.00;47657.47;5021009;28;20159;-79
2023/05/09 10:24:38;;;;;;;39.37;22.03;;;;;;;-141.97;100.00;47676.69;5050726;28;20174;-80
2023/05/09 10:27:11;;;;;;;40.17;21.40;;;;;;;-141.97;100.00;47695.91;5022504;28;20166;-79
2023/05/09 10:29:43;;;;;;;37.37;19.90;;;;;;;-141.97;100.00;47651.69;5014422;28;20189;-79
2023/05/09 10:32:19;;;;;;;37.03;19.53;;;;;;;-141.97;100.00;47653.63;5013056;28;20198;-77
2023/05/09 10:34:50;;;;;;;35.37;20.50;;;;;;;-141.97;100.00;47684.38;5012980;28;20178;-78
2023/05/09 10:37:16;;;;;;;33.67;20.13;;;;;;;-141.97;100.00;47695.91;5011299;28;20261;-76
2023/05/09 10:39:42;;;;;;;35.07;19.40;;;;;;;-141.97;100.00;47615.19;5011626;28;20241;-79
2023/05/09 10:42:08;;;;;;;33.23;19.70;;;;;;;-141.97;100.00;47676.69;5012991;28;20258;-79
2023/05/09 10:44:34;;;;;;;35.50;19.93;;;;;;;-141.97;100.00;47657.47;5012209;28;20182;-79
2023/05/09 10:47:00;;;;;;;34.77;20.57;;;;;;;-141.97;100.00;47644.00;5011976;28;20167;-79
2023/05/09 10:49:26;;;;;;;35.60;20.37;;;;;;;-141.97;100.00;47617.09;5012635;28;20217;-78
2023/05/09 10:51:52;;;;;;;31.50;18.80;;;;;;;-141.97;100.00;47692.06;5010825;28;20605;-79
2023/05/09 10:54:27;;;;;;;31.50;19.87;;;;;;;-141.97;100.00;47647.84;5012192;28;20255;-79